createdAt,value
2023-04-23T00:00:32.876Z,99682.53
2023-04-23T00:03:10.518Z,99679.59
2023-04-23T00:05:38.886Z,99686.31
2023-04-23T00:08:08.061Z,99675.72
2023-04-23T00:10:35.789Z,99673.78
2023-04-23T00:13:04.210Z,99675.28
2023-04-23T00:15:31.812Z,99673.56
2023-04-23T00:17:59.125Z,99670.94
2023-04-23T00:20:26.282Z,99670.13
2023-04-23T00:22:53.431Z,99678.06
2023-04-23T00:25:21.073Z,99675.50
2023-04-23T00:27:48.352Z,99676.47
2023-04-23T00:30:16.772Z,99667.63
2023-04-23T00:32:44.690Z,99660.59
2023-04-23T00:35:12.698Z,99664.03
2023-04-23T00:37:40.049Z,99667.56
2023-04-23T00:40:08.635Z,99670.72
2023-04-23T00:42:38.585Z,99672.38
2023-04-23T00:45:09.708Z,99667.88
2023-04-23T00:47:37.033Z,99679.34
2023-04-23T00:50:06.503Z,99689.94
2023-04-23T00:52:34.600Z,99693.91
2023-04-23T00:55:02.864Z,99697.16
2023-04-23T00:57:30.928Z,99682.69
2023-04-23T00:59:59.192Z,99672.75
2023-04-23T01:02:30.138Z,99669.16
2023-04-23T01:05:00.653Z,99681.56
2023-04-23T01:07:28.618Z,99686.97
2023-04-23T01:09:56.104Z,99677.63
2023-04-23T01:12:23.775Z,99669.75
2023-04-23T01:14:51.693Z,99669.47
2023-04-23T01:17:19.183Z,99669.47
2023-04-23T01:19:46.429Z,99664.81
2023-04-23T01:22:15.752Z,99677.13
2023-04-23T01:24:45.580Z,99671.69
2023-04-23T01:27:12.999Z,99666.50
2023-04-23T01:29:40.619Z,99662.25
2023-04-23T01:32:09.084Z,99665.66
2023-04-23T01:34:40.024Z,99669.94
2023-04-23T01:37:08.460Z,99661.44
2023-04-23T01:39:37.047Z,99667.53
2023-04-23T01:42:07.174Z,99671.00
2023-04-23T01:44:34.608Z,99664.22
2023-04-23T01:47:02.074Z,99669.56
2023-04-23T01:49:29.402Z,99670.38
2023-04-23T01:51:56.537Z,99667.13
2023-04-23T01:54:23.887Z,99669.91
2023-04-23T01:56:54.750Z,99669.97
2023-04-23T01:59:23.162Z,99671.78
2023-04-23T02:01:51.098Z,99669.34
2023-04-23T02:04:18.933Z,99673.78
2023-04-23T02:06:50.915Z,99675.81
2023-04-23T02:09:18.285Z,99670.00
2023-04-23T02:11:45.696Z,99670.00
2023-04-23T02:14:13.972Z,99670.78
2023-04-23T02:16:41.252Z,99675.06
2023-04-23T02:19:08.571Z,99678.44
2023-04-23T02:21:36.389Z,99676.78
2023-04-23T02:24:05.318Z,99675.06
2023-04-23T02:26:32.780Z,99663.00
2023-04-23T02:29:00.145Z,99666.78
2023-04-23T02:31:27.408Z,99663.94
2023-04-23T02:33:55.574Z,99663.41
2023-04-23T02:36:22.858Z,99666.97
2023-04-23T02:38:51.200Z,99670.69
2023-04-23T02:41:18.564Z,99661.16
2023-04-23T02:43:46.042Z,99661.94
2023-04-23T02:46:13.354Z,99662.69
2023-04-23T02:48:42.272Z,99666.25
2023-04-23T02:51:13.820Z,99662.91
2023-04-23T02:53:41.130Z,99662.84
2023-04-23T02:56:08.493Z,99663.72
2023-04-23T02:58:36.696Z,99657.53
2023-04-23T03:01:05.386Z,99654.13
2023-04-23T03:03:34.171Z,99658.63
2023-04-23T03:06:04.422Z,99658.91
2023-04-23T03:08:31.591Z,99655.25
2023-04-23T03:10:58.847Z,99656.59
2023-04-23T03:13:27.168Z,99660.88
2023-04-23T03:15:55.449Z,99660.19
2023-04-23T03:18:22.984Z,99663.72
2023-04-23T03:20:53.240Z,99653.81
2023-04-23T03:23:20.484Z,99654.38
2023-04-23T03:25:48.443Z,99651.69
2023-04-23T03:28:15.693Z,99645.44
2023-04-23T03:30:43.213Z,99642.59
2023-04-23T03:33:10.823Z,99634.59
2023-04-23T03:35:38.226Z,99629.31
2023-04-23T03:38:11.032Z,99633.81
2023-04-23T03:40:38.483Z,99636.56
2023-04-23T03:43:08.031Z,99636.50
2023-04-23T03:46:04.197Z,99643.56
2023-04-23T03:48:35.899Z,99648.91
2023-04-23T03:51:07.305Z,99648.00
2023-04-23T03:53:40.175Z,99647.91
2023-04-23T03:56:28.953Z,99643.56
2023-04-23T03:59:10.875Z,99639.84
2023-04-23T04:01:38.115Z,99635.63
2023-04-23T04:04:05.781Z,99640.06
2023-04-23T04:06:33.813Z,99650.75
2023-04-23T04:09:01.155Z,99654.97
2023-04-23T04:11:29.228Z,99646.28
2023-04-23T04:13:56.471Z,99644.53
2023-04-23T04:16:23.743Z,99648.00
2023-04-23T04:18:51.146Z,99640.19
2023-04-23T04:21:19.051Z,99646.34
2023-04-23T04:23:46.353Z,99636.72
2023-04-23T04:26:15.181Z,99642.06
2023-04-23T04:28:45.567Z,99643.78
2023-04-23T04:31:15.915Z,99652.41
2023-04-23T04:33:43.342Z,99645.56
2023-04-23T04:36:10.549Z,99635.72
2023-04-23T04:38:38.025Z,99640.97
2023-04-23T04:41:06.388Z,99634.94
2023-04-23T04:43:34.468Z,99641.16
2023-04-23T04:46:01.779Z,99645.44
2023-04-23T04:48:29.097Z,99648.13
2023-04-23T04:50:59.538Z,99649.84
2023-04-23T04:53:26.888Z,99658.63
2023-04-23T04:55:54.039Z,99665.97
2023-04-23T04:58:21.545Z,99658.25
2023-04-23T05:00:51.854Z,99653.00
2023-04-23T05:03:19.789Z,99653.00
2023-04-23T05:05:50.604Z,99657.66
2023-04-23T05:08:18.745Z,99658.69
2023-04-23T05:10:45.992Z,99659.69
2023-04-23T05:13:13.415Z,99658.75
2023-04-23T05:15:40.907Z,99655.34
2023-04-23T05:18:11.311Z,99648.28
2023-04-23T05:20:38.734Z,99651.97
2023-04-23T05:23:06.094Z,99651.50
2023-04-23T05:25:34.565Z,99650.81
2023-04-23T05:28:02.393Z,99661.63
2023-04-23T05:30:30.289Z,99659.22
2023-04-23T05:32:57.525Z,99661.94
2023-04-23T05:35:24.813Z,99656.78
2023-04-23T05:37:52.522Z,99658.56
2023-04-23T05:40:19.755Z,99666.44
2023-04-23T05:42:47.029Z,99663.00
2023-04-23T05:45:14.355Z,99671.84
2023-04-23T05:47:41.892Z,99673.69
2023-04-23T05:50:11.523Z,99669.47
2023-04-23T05:52:39.682Z,99669.72
2023-04-23T05:55:09.698Z,99673.16
2023-04-23T05:57:39.106Z,99674.13
2023-04-23T06:00:11.808Z,99666.38
2023-04-23T06:02:42.754Z,99676.19
2023-04-23T06:05:11.172Z,99676.22
2023-04-23T06:07:39.567Z,99675.50
2023-04-23T06:10:08.044Z,99672.22
2023-04-23T06:12:39.068Z,99669.81
2023-04-23T06:15:08.895Z,99670.09
2023-04-23T06:17:37.003Z,99666.06
2023-04-23T06:20:05.432Z,99674.97
2023-04-23T06:22:32.789Z,99670.78
2023-04-23T06:25:00.026Z,99678.03
2023-04-23T06:27:27.574Z,99673.00
2023-04-23T06:29:59.296Z,99672.44
2023-04-23T06:32:26.529Z,99676.19
2023-04-23T06:35:00.905Z,99671.22
2023-04-23T06:37:31.712Z,99660.75
2023-04-23T06:39:59.643Z,99663.78
2023-04-23T06:42:26.828Z,99666.03
2023-04-23T06:45:23.100Z,99668.16
2023-04-23T06:47:51.031Z,99667.41
2023-04-23T06:50:18.418Z,99657.03
2023-04-23T06:52:46.045Z,99664.03
2023-04-23T06:55:13.298Z,99659.06
2023-04-23T06:57:41.054Z,99662.94
2023-04-23T07:00:10.825Z,99647.19
2023-04-23T07:02:40.338Z,99648.88
2023-04-23T07:05:08.436Z,99641.91
2023-04-23T07:07:37.372Z,99640.13
2023-04-23T07:10:07.090Z,99640.72
2023-04-23T07:12:34.348Z,99642.25
2023-04-23T07:15:01.700Z,99643.97
2023-04-23T07:17:29.323Z,99643.19
2023-04-23T07:19:56.685Z,99638.91
2023-04-23T07:22:27.359Z,99640.13
2023-04-23T07:24:56.110Z,99639.56
2023-04-23T07:27:23.462Z,99633.53
2023-04-23T07:29:50.686Z,99636.31
2023-04-23T07:32:18.132Z,99637.44
2023-04-23T07:34:45.515Z,99639.56
2023-04-23T07:37:12.662Z,99642.00
2023-04-23T07:39:41.874Z,99633.75
2023-04-23T07:42:11.257Z,99631.25
2023-04-23T07:44:38.438Z,99636.34
2023-04-23T07:47:05.779Z,99637.84
2023-04-23T07:49:32.921Z,99632.56
2023-04-23T07:52:00.091Z,99626.53
2023-04-23T07:54:27.328Z,99625.03
2023-04-23T07:56:54.489Z,99622.06
2023-04-23T07:59:21.817Z,99617.56
2023-04-23T08:01:48.966Z,99616.72
2023-04-23T08:04:16.410Z,99617.00
2023-04-23T08:06:43.944Z,99607.34
2023-04-23T08:09:11.316Z,99612.78
2023-04-23T08:11:38.588Z,99611.53
2023-04-23T08:14:05.946Z,99622.25
2023-04-23T08:16:33.314Z,99624.97
2023-04-23T08:19:05.234Z,99623.31
2023-04-23T08:21:34.101Z,99626.34
2023-04-23T08:24:03.114Z,99629.41
2023-04-23T08:26:31.524Z,99620.59
2023-04-23T08:29:02.424Z,99629.41
2023-04-23T08:31:29.829Z,99625.16
2023-04-23T08:33:57.204Z,99626.13
2023-04-23T08:36:25.516Z,99626.09
2023-04-23T08:38:52.760Z,99628.94
2023-04-23T08:41:24.550Z,99631.34
2023-04-23T08:44:10.414Z,99636.22
2023-04-23T08:46:43.211Z,99621.50
2023-04-23T08:49:18.552Z,99623.22
2023-04-23T08:51:58.775Z,99625.25
2023-04-23T08:54:28.903Z,99633.31
2023-04-23T08:56:58.638Z,99626.25
2023-04-23T08:59:34.638Z,99631.75
2023-04-23T09:02:07.971Z,99623.19
2023-04-23T09:04:37.296Z,99620.59
2023-04-23T09:07:07.734Z,99629.69
2023-04-23T09:09:35.771Z,99629.16
2023-04-23T09:12:03.015Z,99631.19
2023-04-23T09:14:30.176Z,99632.16
2023-04-23T09:16:57.469Z,99632.16
2023-04-23T09:19:27.768Z,99620.91
2023-04-23T09:21:56.259Z,99619.28
2023-04-23T09:24:26.612Z,99617.47
2023-04-23T09:26:54.817Z,99611.31
2023-04-23T09:29:25.971Z,99611.38
2023-04-23T09:31:58.308Z,99605.47
2023-04-23T09:34:26.495Z,99602.84
2023-04-23T09:36:53.908Z,99592.09
2023-04-23T09:39:24.540Z,99596.59
2023-04-23T09:41:56.091Z,99589.47
2023-04-23T09:44:26.243Z,99594.81
2023-04-23T09:46:53.565Z,99592.88
2023-04-23T09:49:20.834Z,99586.63
2023-04-23T09:51:49.793Z,99594.47
2023-04-23T09:54:25.733Z,99589.88
2023-04-23T09:56:58.823Z,99579.53
2023-04-23T09:59:46.193Z,99577.22
2023-04-23T10:02:16.472Z,99572.84
2023-04-23T10:04:44.131Z,99566.88
2023-04-23T10:07:19.641Z,99569.56
2023-04-23T10:09:48.147Z,99565.13
2023-04-23T10:12:35.731Z,99566.41
2023-04-23T10:15:06.253Z,99566.47
2023-04-23T10:17:36.138Z,99558.47
2023-04-23T10:20:06.931Z,99557.59
2023-04-23T10:22:36.283Z,99554.03
2023-04-23T10:25:11.633Z,99557.78
2023-04-23T10:27:53.931Z,99553.38
2023-04-23T10:30:23.002Z,99554.31
2023-04-23T10:32:51.312Z,99550.84
2023-04-23T10:35:18.601Z,99562.47
2023-04-23T10:37:48.173Z,99566.00
2023-04-23T10:40:25.978Z,99559.88
2023-04-23T10:42:53.760Z,99555.44
2023-04-23T10:45:25.249Z,99554.50
2023-04-23T10:47:57.223Z,99558.91
2023-04-23T10:50:31.075Z,99561.56
2023-04-23T10:52:58.958Z,99549.66
2023-04-23T10:55:32.515Z,99549.03
2023-04-23T10:58:05.791Z,99539.06
2023-04-23T11:00:41.775Z,99539.06
2023-04-23T11:03:43.344Z,99536.78
2023-04-23T11:06:52.870Z,99527.97
2023-04-23T11:09:46.485Z,99519.94
2023-04-23T11:12:29.808Z,99522.50
2023-04-23T11:15:01.978Z,99510.72
2023-04-23T11:17:32.057Z,99512.28
2023-04-23T11:20:16.321Z,99505.59
2023-04-23T11:22:45.625Z,99511.47
2023-04-23T11:25:22.359Z,99500.63
2023-04-23T11:27:52.415Z,99501.34
2023-04-23T11:30:29.464Z,99496.16
2023-04-23T11:32:59.874Z,99491.84
2023-04-23T11:35:29.261Z,99494.59
2023-04-23T11:37:57.106Z,99492.41
2023-04-23T11:40:24.687Z,99489.34
2023-04-23T11:42:55.171Z,99492.13
2023-04-23T11:45:28.776Z,99493.81
2023-04-23T11:47:59.147Z,99482.97
2023-04-23T11:50:30.816Z,99491.38
2023-04-23T11:52:58.528Z,99482.31
2023-04-23T11:55:26.478Z,99484.13
2023-04-23T11:57:53.732Z,99474.78
2023-04-23T12:00:26.991Z,99468.59
2023-04-23T12:03:01.437Z,99458.81
2023-04-23T12:05:44.802Z,99456.00
2023-04-23T12:08:20.218Z,99458.84
2023-04-23T12:10:59.822Z,99453.47
2023-04-23T12:13:35.572Z,99449.94
2023-04-23T12:16:05.387Z,99456.84
2023-04-23T12:18:42.249Z,99461.50
2023-04-23T12:21:13.459Z,99451.72
2023-04-23T12:23:44.597Z,99449.88
2023-04-23T12:26:15.628Z,99459.63
2023-04-23T12:28:59.870Z,99449.97
2023-04-23T12:31:29.698Z,99443.81
2023-04-23T12:34:09.838Z,99449.91
2023-04-23T12:36:40.838Z,99434.03
2023-04-23T12:39:36.270Z,99449.13
2023-04-23T12:42:07.022Z,99434.88
2023-04-23T12:44:37.090Z,99429.44
2023-04-23T12:47:09.389Z,99439.13
2023-04-23T12:49:41.863Z,99444.47
2023-04-23T12:52:10.924Z,99439.19
2023-04-23T12:54:40.869Z,99436.47
2023-04-23T12:57:12.871Z,99423.34
2023-04-23T12:59:40.524Z,99422.97
2023-04-23T13:02:09.072Z,99426.69
2023-04-23T13:04:36.932Z,99415.59
2023-04-23T13:07:05.466Z,99422.72
2023-04-23T13:09:33.070Z,99410.06
2023-04-23T13:12:00.895Z,99407.13
2023-04-23T13:14:28.637Z,99408.69
2023-04-23T13:16:57.879Z,99399.13
2023-04-23T13:19:25.570Z,99396.94
2023-04-23T13:21:53.541Z,99396.72
2023-04-23T13:24:20.678Z,99392.72
2023-04-23T13:26:47.813Z,99400.31
2023-04-23T13:29:15.979Z,99393.19
2023-04-23T13:31:43.245Z,99384.78
2023-04-23T13:34:10.573Z,99383.84
2023-04-23T13:36:41.112Z,99371.69
2023-04-23T13:39:10.911Z,99366.25
2023-04-23T13:41:38.172Z,99361.13
2023-04-23T13:44:05.400Z,99363.78
2023-04-23T13:46:33.065Z,99366.03
2023-04-23T13:49:01.188Z,99361.59
2023-04-23T13:51:35.630Z,99362.84
2023-04-23T13:54:03.540Z,99351.16
2023-04-23T13:56:31.733Z,99345.31
2023-04-23T13:59:18.165Z,99341.50
2023-04-23T14:01:50.640Z,99344.22
2023-04-23T14:04:24.760Z,99342.34
2023-04-23T14:06:51.989Z,99340.16
2023-04-23T14:09:19.200Z,99329.72
2023-04-23T14:11:46.570Z,99330.94
2023-04-23T14:14:13.765Z,99324.91
2023-04-23T14:16:41.031Z,99330.16
2023-04-23T14:19:08.241Z,99328.34
2023-04-23T14:21:36.213Z,99328.44
2023-04-23T14:24:16.941Z,99325.00
2023-04-23T14:26:49.285Z,99333.19
2023-04-23T14:29:22.941Z,99318.38
2023-04-23T14:31:50.855Z,99321.22
2023-04-23T14:34:18.110Z,99310.81
2023-04-23T14:36:48.827Z,99323.19
2023-04-23T14:39:16.291Z,99326.78
2023-04-23T14:41:43.745Z,99327.84
2023-04-23T14:44:11.279Z,99317.59
2023-04-23T14:46:38.533Z,99316.91
2023-04-23T14:49:06.401Z,99309.75
2023-04-23T14:51:33.763Z,99313.19
2023-04-23T14:54:01.431Z,99303.59
2023-04-23T14:56:28.720Z,99301.19
2023-04-23T14:58:55.869Z,99299.84
2023-04-23T15:01:24.150Z,99291.97
2023-04-23T15:03:53.672Z,99297.53
2023-04-23T15:06:21.296Z,99289.09
2023-04-23T15:08:48.787Z,99284.53
2023-04-23T15:11:15.984Z,99284.91
2023-04-23T15:14:08.172Z,99285.97
2023-04-23T15:16:47.461Z,99281.19
2023-04-23T15:19:19.674Z,99277.84
2023-04-23T15:21:48.055Z,99273.44
2023-04-23T15:24:16.830Z,99270.94
2023-04-23T15:26:49.514Z,99270.81
2023-04-23T15:29:19.071Z,99270.41
2023-04-23T15:31:46.309Z,99277.56
2023-04-23T15:34:13.601Z,99272.47
2023-04-23T15:36:40.812Z,99272.41
2023-04-23T15:39:08.952Z,99269.19
2023-04-23T15:41:39.432Z,99255.50
2023-04-23T15:44:12.719Z,99260.47
2023-04-23T15:46:42.907Z,99256.59
2023-04-23T15:49:11.479Z,99258.38
2023-04-23T15:51:38.851Z,99252.28
2023-04-23T15:54:08.439Z,99264.72
2023-04-23T15:56:36.964Z,99251.56
2023-04-23T15:59:04.222Z,99253.69
2023-04-23T16:01:31.773Z,99249.50
2023-04-23T16:04:09.309Z,99243.44
2023-04-23T16:06:37.414Z,99237.88
2023-04-23T16:09:07.403Z,99243.00
2023-04-23T16:11:37.504Z,99237.66
2023-04-23T16:14:06.166Z,99225.50
2023-04-23T16:16:33.739Z,99218.63
2023-04-23T16:19:02.597Z,99222.84
2023-04-23T16:21:31.235Z,99215.19
2023-04-23T16:23:58.553Z,99213.03
2023-04-23T16:26:25.844Z,99208.88
2023-04-23T16:29:05.561Z,99203.88
2023-04-23T16:31:40.566Z,99195.97
2023-04-23T16:34:07.778Z,99190.50
2023-04-23T16:36:35.089Z,99196.03
2023-04-23T16:39:02.729Z,99197.88
2023-04-23T16:41:31.497Z,99194.56
2023-04-23T16:43:58.727Z,99198.22
2023-04-23T16:46:29.818Z,99185.75
2023-04-23T16:48:57.593Z,99189.25
2023-04-23T16:51:26.455Z,99178.53
2023-04-23T16:53:54.086Z,99175.06
2023-04-23T16:56:21.941Z,99179.50
2023-04-23T16:58:50.085Z,99167.19
2023-04-23T17:01:18.155Z,99164.66
2023-04-23T17:03:46.564Z,99166.41
2023-04-23T17:06:32.156Z,99158.44
2023-04-23T17:09:02.391Z,99165.69
2023-04-23T17:11:30.965Z,99168.38
2023-04-23T17:13:58.547Z,99160.44
2023-04-23T17:16:28.919Z,99164.00
2023-04-23T17:18:56.983Z,99159.59
2023-04-23T17:21:24.516Z,99161.38
2023-04-23T17:23:51.863Z,99155.22
2023-04-23T17:26:19.823Z,99150.81
2023-04-23T17:28:47.112Z,99152.56
2023-04-23T17:31:14.393Z,99145.50
2023-04-23T17:33:44.622Z,99136.66
2023-04-23T17:36:11.871Z,99141.97
2023-04-23T17:38:39.010Z,99138.44
2023-04-23T17:41:06.468Z,99149.06
2023-04-23T17:43:35.037Z,99139.31
2023-04-23T17:46:02.887Z,99132.25
2023-04-23T17:48:30.378Z,99124.31
2023-04-23T17:50:57.624Z,99120.75
2023-04-23T17:53:25.016Z,99121.63
2023-04-23T17:55:52.266Z,99110.13
2023-04-23T17:58:21.355Z,99107.47
2023-04-23T18:00:48.614Z,99109.25
2023-04-23T18:03:17.520Z,99111.88
2023-04-23T18:05:45.321Z,99108.34
2023-04-23T18:08:12.906Z,99111.00
2023-04-23T18:10:40.393Z,99111.88
2023-04-23T18:13:11.804Z,99118.06
2023-04-23T18:15:40.898Z,99116.28
2023-04-23T18:18:08.960Z,99113.63
2023-04-23T18:20:38.472Z,99118.94
2023-04-23T18:23:06.637Z,99117.19
2023-04-23T18:25:34.105Z,99125.13
2023-04-23T18:28:01.480Z,99121.59
2023-04-23T18:30:29.252Z,99123.38
2023-04-23T18:33:29.377Z,99123.34
2023-04-23T18:35:59.963Z,99118.03
2023-04-23T18:38:43.432Z,99112.72
2023-04-23T18:41:10.625Z,99118.84
2023-04-23T18:43:37.970Z,99117.06
2023-04-23T18:46:05.953Z,99110.84
2023-04-23T18:48:41.434Z,99119.59
2023-04-23T18:51:17.678Z,99118.63
2023-04-23T18:53:46.210Z,99104.47
2023-04-23T18:56:13.562Z,99104.50
2023-04-23T18:58:41.805Z,99105.31
2023-04-23T19:01:08.973Z,99105.25
2023-04-23T19:03:37.002Z,99102.56
2023-04-23T19:06:07.415Z,99101.66
2023-04-23T19:08:35.936Z,99106.03
2023-04-23T19:11:06.449Z,99096.28
2023-04-23T19:13:33.671Z,99098.00
2023-04-23T19:16:01.090Z,99094.44
2023-04-23T19:18:28.976Z,99101.50
2023-04-23T19:20:56.390Z,99110.25
2023-04-23T19:23:23.711Z,99105.75
2023-04-23T19:25:53.659Z,99109.22
2023-04-23T19:28:21.002Z,99119.69
2023-04-23T19:30:48.509Z,99114.34
2023-04-23T19:33:15.961Z,99119.59
2023-04-23T19:35:43.469Z,99120.34
2023-04-23T19:38:10.729Z,99128.22
2023-04-23T19:40:38.030Z,99124.69
2023-04-23T19:43:05.323Z,99135.31
2023-04-23T19:45:33.091Z,99142.41
2023-04-23T19:48:01.125Z,99139.69
2023-04-23T19:50:29.619Z,99142.22
2023-04-23T19:52:57.256Z,99135.13
2023-04-23T19:55:28.014Z,99149.97
2023-04-23T19:57:56.676Z,99160.38
2023-04-23T20:00:26.353Z,99162.03
2023-04-23T20:02:55.361Z,99168.25
2023-04-23T20:05:22.993Z,99172.91
2023-04-23T20:07:53.140Z,99173.63
2023-04-23T20:10:20.959Z,99178.78
2023-04-23T20:12:48.271Z,99177.78
2023-04-23T20:15:15.461Z,99180.56
2023-04-23T20:17:42.645Z,99177.22
2023-04-23T20:20:10.981Z,99177.22
2023-04-23T20:22:38.131Z,99173.53
2023-04-23T20:25:06.332Z,99175.16
2023-04-23T20:27:33.692Z,99170.72
2023-04-23T20:30:01.061Z,99167.22
2023-04-23T20:32:28.449Z,99171.72
2023-04-23T20:34:56.199Z,99169.22
2023-04-23T20:37:26.952Z,99157.28
2023-04-23T20:39:55.476Z,99160.31
2023-04-23T20:42:23.242Z,99158.25
2023-04-23T20:44:51.991Z,99161.63
2023-04-23T20:47:19.314Z,99167.59
2023-04-23T20:49:46.675Z,99164.00
2023-04-23T20:52:17.320Z,99163.94
2023-04-23T20:54:45.710Z,99172.56
2023-04-23T20:57:12.941Z,99170.75
2023-04-23T20:59:41.688Z,99169.81
2023-04-23T21:02:12.849Z,99165.31
2023-04-23T21:04:40.588Z,99158.25
2023-04-23T21:07:08.212Z,99157.25
2023-04-23T21:09:35.459Z,99152.78
2023-04-23T21:12:02.964Z,99150.91
2023-04-23T21:14:30.949Z,99150.06
2023-04-23T21:16:58.161Z,99152.50
2023-04-23T21:19:25.490Z,99149.00
2023-04-23T21:21:52.805Z,99147.91
2023-04-23T21:24:20.094Z,99154.06
2023-04-23T21:26:47.694Z,99147.84
2023-04-23T21:29:15.111Z,99152.28
2023-04-23T21:31:52.433Z,99144.38
2023-04-23T21:34:19.789Z,99145.22
2023-04-23T21:36:47.247Z,99143.47
2023-04-23T21:39:14.630Z,99140.13
2023-04-23T21:41:42.703Z,99129.69
2023-04-23T21:44:09.888Z,99138.50
2023-04-23T21:46:37.299Z,99136.91
2023-04-23T21:49:04.849Z,99137.84
2023-04-23T21:51:36.854Z,99134.28
2023-04-23T21:54:05.795Z,99140.53
2023-04-23T21:56:34.103Z,99136.06
2023-04-23T21:59:02.403Z,99137.75
2023-04-23T22:01:29.879Z,99140.38
2023-04-23T22:03:58.165Z,99140.31
2023-04-23T22:06:25.665Z,99137.66
2023-04-23T22:08:54.547Z,99145.69
2023-04-23T22:11:22.515Z,99142.22
2023-04-23T22:13:50.003Z,99137.06
2023-04-23T22:16:27.521Z,99132.56
2023-04-23T22:19:00.404Z,99129.94
2023-04-23T22:21:28.240Z,99136.25
2023-04-23T22:23:55.970Z,99131.09
2023-04-23T22:26:23.311Z,99131.84
2023-04-23T22:28:50.784Z,99139.25
2023-04-23T22:31:18.402Z,99133.59
2023-04-23T22:33:45.743Z,99135.06
2023-04-23T22:36:13.961Z,99129.59
2023-04-23T22:38:41.339Z,99133.88
2023-04-23T22:41:08.715Z,99131.81
2023-04-23T22:43:36.085Z,99129.63
2023-04-23T22:46:03.598Z,99134.75
2023-04-23T22:48:31.106Z,99127.94
2023-04-23T22:50:59.065Z,99132.34
2023-04-23T22:53:26.293Z,99132.97
2023-04-23T22:55:56.487Z,99136.34
2023-04-23T22:58:23.920Z,99135.03
2023-04-23T23:00:51.446Z,99129.78
2023-04-23T23:03:18.964Z,99140.28
2023-04-23T23:05:46.377Z,99124.44
2023-04-23T23:08:13.658Z,99128.00
2023-04-23T23:10:40.932Z,99124.38
2023-04-23T23:13:08.152Z,99110.50
2023-04-23T23:15:35.440Z,99105.34
2023-04-23T23:18:02.859Z,99108.69
2023-04-23T23:20:30.204Z,99104.31
2023-04-23T23:23:00.225Z,99101.66
2023-04-23T23:25:27.820Z,99097.31
2023-04-23T23:27:55.369Z,99085.94
2023-04-23T23:30:22.738Z,99080.72
2023-04-23T23:32:50.205Z,99086.03
2023-04-23T23:35:17.665Z,99080.16
2023-04-23T23:37:44.886Z,99094.53
2023-04-23T23:40:12.407Z,99096.03
2023-04-23T23:42:39.726Z,99086.28
2023-04-23T23:45:12.436Z,99074.88
2023-04-23T23:47:39.864Z,99076.69
2023-04-23T23:50:08.450Z,99081.00
2023-04-23T23:52:35.771Z,99081.66
2023-04-23T23:55:03.062Z,99080.41
2023-04-23T23:57:30.384Z,99088.63
2023-04-23T23:59:57.707Z,99087.97
